Newport, New York
Current Conditions -  °F | °C
As of 2:53 PM on Sunday 23 Nov 2014 (Local Time) from KRME Reporting Station
Overcast Overcast  
Wind Chill: 51°   Ceiling: 3600
Heat Index: 51°   Visibility: 10mi
Dew Point: 40°   Wind: 5mph
Humidity: 66%   Direction: 140°SE
Pressure: 30.04"   Gusts: NA
Location:  43.19°N, 75.01°W
Report Text: KRME 231953Z 14004KT 10SM OVC036 11/04 A3004 RMK AO2 SLP175 T01060044
Loading
Personal Weather Stations






























Interactive Weather Map New forecast layout! Learn more

10-Day Weather Forecast

Advertisements
Track Severe Weather on mobile